createdAt,value
2019-01-19T00:00:30.747Z,20.10
2019-01-19T00:03:29.032Z,16.60
2019-01-19T00:06:45.034Z,17.43
2019-01-19T00:09:28.857Z,17.17
2019-01-19T00:12:55.207Z,18.13
2019-01-19T00:15:43.187Z,23.23
2019-01-19T00:19:02.083Z,14.27
2019-01-19T00:22:11.550Z,16.83
2019-01-19T00:25:33.420Z,12.23
2019-01-19T00:28:27.595Z,16.07
2019-01-19T00:31:26.385Z,25.86
2019-01-19T00:34:49.096Z,18.57
2019-01-19T00:37:53.448Z,16.63
2019-01-19T00:41:00.151Z,14.53
2019-01-19T00:44:10.637Z,14.40
2019-01-19T00:47:45.952Z,18.73
2019-01-19T00:51:00.518Z,14.93
2019-01-19T00:53:46.141Z,13.32
2019-01-19T00:56:47.930Z,13.90
2019-01-19T00:59:32.981Z,21.90
2019-01-19T01:02:59.183Z,19.80
2019-01-19T01:05:52.792Z,15.32
2019-01-19T01:09:06.970Z,19.37
2019-01-19T01:12:27.727Z,14.03
2019-01-19T01:15:58.054Z,13.32
2019-01-19T01:19:03.158Z,16.26
2019-01-19T01:22:35.583Z,27.87
2019-01-19T01:26:01.983Z,15.23
2019-01-19T01:29:24.497Z,16.67
2019-01-19T01:32:24.847Z,13.80
2019-01-19T01:35:40.830Z,14.57
2019-01-19T01:39:06.591Z,23.70
2019-01-19T01:42:17.104Z,16.20
2019-01-19T01:45:22.565Z,13.48
2019-01-19T01:48:39.323Z,17.33
2019-01-19T01:51:39.577Z,13.70
2019-01-19T01:54:37.368Z,14.73
2019-01-19T01:57:16.925Z,16.20
2019-01-19T02:00:16.966Z,11.20
2019-01-19T02:03:40.301Z,16.40
2019-01-19T02:07:02.632Z,18.32
2019-01-19T02:10:16.011Z,17.93
2019-01-19T02:13:51.510Z,20.00
2019-01-19T02:17:05.022Z,17.93
2019-01-19T02:20:18.244Z,11.30
2019-01-19T02:23:50.032Z,14.83
2019-01-19T02:27:16.542Z,16.37
2019-01-19T02:30:40.025Z,9.60
2019-01-19T02:33:59.392Z,15.73
2019-01-19T02:37:27.590Z,17.52
2019-01-19T02:40:41.020Z,20.35
2019-01-19T02:43:48.293Z,17.27
2019-01-19T02:47:20.455Z,14.90
2019-01-19T02:50:36.494Z,16.57
2019-01-19T02:53:46.645Z,14.13
2019-01-19T02:57:01.386Z,17.40
2019-01-19T03:00:03.927Z,32.38
2019-01-19T03:03:42.842Z,25.40
2019-01-19T03:07:06.415Z,17.13
2019-01-19T03:10:21.643Z,32.73
2019-01-19T03:13:51.106Z,19.57
2019-01-19T03:17:08.320Z,17.37
2019-01-19T03:20:34.490Z,23.90
2019-01-19T03:24:06.084Z,15.90
2019-01-19T03:26:59.278Z,17.47
2019-01-19T03:30:35.171Z,26.56
2019-01-19T03:34:22.289Z,14.37
2019-01-19T03:37:41.440Z,18.67
2019-01-19T03:41:17.777Z,20.07
2019-01-19T03:44:40.670Z,18.95
2019-01-19T03:47:54.710Z,21.30
2019-01-19T03:51:15.352Z,28.43
2019-01-19T03:54:15.801Z,22.42
2019-01-19T03:57:02.862Z,17.95
2019-01-19T04:00:00.646Z,24.37
2019-01-19T04:03:00.851Z,19.87
2019-01-19T04:06:12.595Z,28.27
2019-01-19T04:09:11.615Z,19.27
2019-01-19T04:12:32.616Z,19.92
2019-01-19T04:16:05.671Z,20.35
2019-01-19T04:19:28.478Z,24.33
2019-01-19T04:22:34.646Z,14.37
2019-01-19T04:25:41.706Z,24.90
2019-01-19T04:28:13.443Z,29.57
2019-01-19T04:30:43.428Z,20.27
2019-01-19T04:33:13.332Z,25.97
2019-01-19T04:35:44.663Z,20.83
2019-01-19T04:38:14.789Z,19.00
2019-01-19T04:40:44.855Z,33.38
2019-01-19T04:43:14.753Z,27.40
2019-01-19T04:45:44.739Z,26.27
2019-01-19T04:48:15.355Z,28.00
2019-01-19T04:50:45.346Z,22.70
2019-01-19T04:53:16.597Z,34.83
2019-01-19T04:55:46.737Z,24.20
2019-01-19T04:58:16.786Z,28.30
2019-01-19T05:00:46.766Z,32.10
2019-01-19T05:03:16.855Z,19.90
2019-01-19T05:05:46.970Z,25.17
2019-01-19T05:08:16.929Z,26.70
2019-01-19T05:10:46.912Z,25.90
2019-01-19T05:13:17.086Z,27.87
2019-01-19T05:15:47.221Z,24.10
2019-01-19T05:18:18.757Z,36.88
2019-01-19T05:20:49.738Z,24.82
2019-01-19T05:23:19.919Z,30.53
2019-01-19T05:25:50.332Z,25.90
2019-01-19T05:28:20.281Z,32.67
2019-01-19T05:30:50.358Z,26.02
2019-01-19T05:33:23.393Z,22.85
2019-01-19T05:35:53.365Z,30.10
2019-01-19T05:38:23.373Z,21.70
2019-01-19T05:40:53.403Z,29.40
2019-01-19T05:43:25.796Z,31.57
2019-01-19T05:45:55.795Z,30.83
2019-01-19T05:48:25.708Z,26.83
2019-01-19T05:50:55.736Z,27.40
2019-01-19T05:53:25.740Z,32.43
2019-01-19T05:55:55.829Z,29.50
2019-01-19T05:58:25.826Z,33.18
2019-01-19T06:00:55.735Z,31.07
2019-01-19T06:03:25.657Z,25.63
2019-01-19T06:05:55.549Z,27.23
2019-01-19T06:08:26.671Z,25.57
2019-01-19T06:10:56.616Z,33.67
2019-01-19T06:13:26.523Z,22.30
2019-01-19T06:15:56.552Z,22.60
2019-01-19T06:18:26.843Z,24.30
2019-01-19T06:20:56.813Z,27.30
2019-01-19T06:23:26.813Z,26.07
2019-01-19T06:25:56.721Z,24.67
2019-01-19T06:28:26.646Z,36.23
2019-01-19T06:30:56.644Z,30.33
2019-01-19T06:33:26.617Z,31.50
2019-01-19T06:35:56.615Z,31.27
2019-01-19T06:38:26.766Z,36.07
2019-01-19T06:40:56.807Z,37.13
2019-01-19T06:43:26.727Z,37.43
2019-01-19T06:45:56.614Z,32.13
2019-01-19T06:48:26.626Z,33.53
2019-01-19T06:50:56.539Z,28.30
2019-01-19T06:53:26.523Z,35.83
2019-01-19T06:55:56.426Z,45.23
2019-01-19T06:58:26.339Z,18.50
2019-01-19T07:00:56.434Z,31.40
2019-01-19T07:03:26.406Z,31.65
2019-01-19T07:05:56.299Z,36.93
2019-01-19T07:08:26.362Z,46.95
2019-01-19T07:10:56.366Z,39.30
2019-01-19T07:13:26.343Z,34.33
2019-01-19T07:15:57.434Z,30.37
2019-01-19T07:18:27.389Z,24.82
2019-01-19T07:20:57.288Z,33.42
2019-01-19T07:23:27.196Z,31.80
2019-01-19T07:25:57.241Z,25.67
2019-01-19T07:28:27.134Z,28.37
2019-01-19T07:30:57.115Z,32.00
2019-01-19T07:33:27.085Z,32.10
2019-01-19T07:35:56.985Z,30.07
2019-01-19T07:38:26.949Z,28.47
2019-01-19T07:40:58.626Z,30.70
2019-01-19T07:43:28.901Z,34.85
2019-01-19T07:45:59.155Z,31.60
2019-01-19T07:48:29.121Z,37.63
2019-01-19T07:50:59.093Z,40.30
2019-01-19T07:53:29.117Z,34.85
2019-01-19T07:55:59.094Z,29.40
2019-01-19T07:58:29.162Z,36.38
2019-01-19T08:00:59.159Z,31.30
2019-01-19T08:03:29.050Z,29.75
2019-01-19T08:05:58.932Z,30.13
2019-01-19T08:08:28.863Z,32.38
2019-01-19T08:10:58.919Z,40.30
2019-01-19T08:13:31.108Z,32.95
2019-01-19T08:16:01.143Z,29.17
2019-01-19T08:18:31.283Z,27.58
2019-01-19T08:21:01.329Z,25.13
2019-01-19T08:23:31.305Z,33.23
2019-01-19T08:26:01.366Z,29.57
2019-01-19T08:28:31.336Z,33.98
2019-01-19T08:31:01.378Z,26.83
2019-01-19T08:33:31.261Z,29.70
2019-01-19T08:36:01.598Z,29.57
2019-01-19T08:38:31.499Z,24.47
2019-01-19T08:41:01.465Z,31.67
2019-01-19T08:43:59.200Z,21.40
2019-01-19T08:46:29.233Z,34.40
2019-01-19T08:49:02.560Z,35.60
2019-01-19T08:51:33.281Z,36.20
2019-01-19T08:54:03.466Z,38.47
2019-01-19T08:56:33.495Z,34.03
2019-01-19T08:59:03.687Z,32.33
2019-01-19T09:01:34.038Z,39.93
2019-01-19T09:04:04.022Z,33.90
2019-01-19T09:06:34.061Z,25.87
2019-01-19T09:09:05.612Z,36.73
2019-01-19T09:11:35.774Z,30.65
2019-01-19T09:14:07.162Z,28.50
2019-01-19T09:16:39.928Z,24.50
2019-01-19T09:19:09.065Z,32.07
2019-01-19T09:21:39.052Z,32.08
2019-01-19T09:24:13.706Z,29.60
2019-01-19T09:26:43.655Z,26.97
2019-01-19T09:29:13.736Z,30.13
2019-01-19T09:31:44.823Z,25.30
2019-01-19T09:34:15.007Z,24.30
2019-01-19T09:36:45.237Z,31.73
2019-01-19T09:39:15.243Z,19.10
2019-01-19T09:41:45.332Z,24.80
2019-01-19T09:44:15.439Z,27.70
2019-01-19T09:46:45.561Z,26.73
2019-01-19T09:49:15.657Z,19.00
2019-01-19T09:51:45.642Z,19.67
2019-01-19T09:54:15.618Z,23.38
2019-01-19T09:56:46.414Z,29.43
2019-01-19T09:59:16.445Z,16.40
2019-01-19T10:01:46.665Z,23.50
2019-01-19T10:04:16.616Z,20.57
2019-01-19T10:06:48.154Z,17.25
2019-01-19T10:09:18.471Z,18.97
2019-01-19T10:11:48.483Z,14.70
2019-01-19T10:14:18.621Z,26.70
2019-01-19T10:16:48.619Z,25.65
2019-01-19T10:19:18.660Z,25.32
2019-01-19T10:21:49.677Z,26.27
2019-01-19T10:24:19.729Z,24.13
2019-01-19T10:26:49.646Z,26.00
2019-01-19T10:29:20.177Z,27.17
2019-01-19T10:31:50.508Z,21.17
2019-01-19T10:34:20.653Z,29.63
2019-01-19T10:36:50.570Z,25.70
2019-01-19T10:39:20.590Z,27.47
2019-01-19T10:41:50.756Z,21.12
2019-01-19T10:44:20.657Z,32.03
2019-01-19T10:46:50.804Z,28.35
2019-01-19T10:49:21.053Z,23.23
2019-01-19T10:51:51.220Z,22.02
2019-01-19T10:54:21.207Z,26.57
2019-01-19T10:56:51.105Z,24.03
2019-01-19T10:59:21.460Z,23.60
2019-01-19T11:01:51.620Z,22.87
2019-01-19T11:04:21.937Z,24.23
2019-01-19T11:06:51.910Z,22.53
2019-01-19T11:09:22.177Z,19.67
2019-01-19T11:11:52.161Z,20.23
2019-01-19T11:14:22.135Z,24.70
2019-01-19T11:16:52.341Z,21.25
2019-01-19T11:19:26.089Z,14.73
2019-01-19T11:21:56.370Z,16.40
2019-01-19T11:24:26.309Z,21.42
2019-01-19T11:26:56.252Z,11.73
2019-01-19T11:29:26.756Z,12.45
2019-01-19T11:31:56.991Z,12.93
2019-01-19T11:34:26.858Z,12.67
2019-01-19T11:36:56.752Z,11.30
2019-01-19T11:39:29.450Z,10.73
2019-01-19T11:41:59.739Z,16.30
2019-01-19T11:44:29.789Z,11.43
2019-01-19T11:46:59.759Z,11.67
2019-01-19T11:49:32.486Z,16.07
2019-01-19T11:52:03.573Z,12.47
2019-01-19T11:54:34.032Z,11.00
2019-01-19T11:57:04.179Z,12.30
2019-01-19T11:59:34.313Z,20.27
2019-01-19T12:02:04.688Z,18.63
2019-01-19T12:04:37.138Z,13.33
2019-01-19T12:07:07.452Z,10.13
2019-01-19T12:09:37.629Z,17.70
2019-01-19T12:12:08.738Z,25.93
2019-01-19T12:14:39.106Z,17.63
2019-01-19T12:17:09.537Z,17.83
2019-01-19T12:19:40.995Z,8.90
2019-01-19T12:22:13.098Z,12.60
2019-01-19T12:24:43.302Z,9.77
2019-01-19T12:27:13.267Z,11.93
2019-01-19T12:29:43.178Z,9.30
2019-01-19T12:32:13.486Z,11.70
2019-01-19T12:34:45.520Z,15.87
2019-01-19T12:37:18.248Z,13.53
2019-01-19T12:39:48.334Z,10.87
2019-01-19T12:42:18.614Z,15.03
2019-01-19T12:44:48.629Z,11.78
2019-01-19T12:47:19.034Z,14.55
2019-01-19T12:49:52.097Z,22.52
2019-01-19T12:52:23.003Z,12.35
2019-01-19T12:54:52.910Z,14.18
2019-01-19T12:57:26.214Z,13.00
2019-01-19T12:59:56.092Z,13.40
2019-01-19T13:02:29.276Z,19.20
2019-01-19T13:04:59.630Z,10.47
2019-01-19T13:07:29.857Z,11.15
2019-01-19T13:10:14.237Z,13.23
2019-01-19T13:13:22.833Z,8.83
2019-01-19T13:16:56.746Z,13.15
2019-01-19T13:19:54.608Z,9.20
2019-01-19T13:23:27.429Z,16.60
2019-01-19T13:26:30.096Z,15.05
2019-01-19T13:29:54.270Z,13.10
2019-01-19T13:32:47.644Z,12.18
2019-01-19T13:36:29.278Z,17.73
2019-01-19T13:40:01.027Z,14.77
2019-01-19T13:43:44.625Z,20.85
2019-01-19T13:46:43.603Z,11.70
2019-01-19T13:50:08.055Z,12.87
2019-01-19T13:53:42.230Z,13.93
2019-01-19T13:57:28.677Z,10.77
2019-01-19T14:01:01.307Z,12.63
2019-01-19T14:03:51.694Z,10.50
2019-01-19T14:07:25.433Z,17.67
2019-01-19T14:10:25.063Z,9.38
2019-01-19T14:13:45.149Z,12.68
2019-01-19T14:16:43.676Z,8.97
2019-01-19T14:19:40.593Z,10.30
2019-01-19T14:23:00.692Z,13.73
2019-01-19T14:26:07.125Z,12.73
2019-01-19T14:29:22.112Z,10.00
2019-01-19T14:32:48.154Z,16.23
2019-01-19T14:36:46.229Z,15.03
2019-01-19T14:40:18.768Z,10.43
2019-01-19T14:43:33.370Z,8.20
2019-01-19T14:46:50.282Z,15.87
2019-01-19T14:50:31.984Z,13.38
2019-01-19T14:53:41.354Z,18.90
2019-01-19T14:57:09.591Z,15.77
2019-01-19T15:00:44.156Z,13.73
2019-01-19T15:04:06.692Z,18.20
2019-01-19T15:07:44.172Z,15.43
2019-01-19T15:10:35.555Z,26.00
2019-01-19T15:13:48.273Z,23.47
2019-01-19T15:17:33.648Z,27.85
2019-01-19T15:20:56.767Z,20.07
2019-01-19T15:24:13.562Z,19.83
2019-01-19T15:27:43.721Z,29.33
2019-01-19T15:31:28.102Z,21.27
2019-01-19T15:35:11.111Z,26.20
2019-01-19T15:38:29.274Z,22.93
2019-01-19T15:41:49.990Z,28.40
2019-01-19T15:45:09.983Z,28.75
2019-01-19T15:48:39.266Z,24.47
2019-01-19T15:52:11.020Z,21.73
2019-01-19T15:55:36.991Z,24.13
2019-01-19T15:58:49.642Z,26.90
2019-01-19T16:02:07.161Z,33.40
2019-01-19T16:05:15.686Z,27.90
2019-01-19T16:08:39.439Z,22.10
2019-01-19T16:12:12.891Z,21.77
2019-01-19T16:15:30.231Z,28.83
2019-01-19T16:19:00.415Z,20.07
2019-01-19T16:22:24.816Z,31.30
2019-01-19T16:26:00.166Z,23.40
2019-01-19T16:29:38.097Z,32.50
2019-01-19T16:32:49.213Z,26.17
2019-01-19T16:36:05.278Z,23.60
2019-01-19T16:39:17.811Z,28.00
2019-01-19T16:42:46.101Z,20.70
2019-01-19T16:45:49.122Z,25.87
2019-01-19T16:49:03.366Z,30.80
2019-01-19T16:52:08.758Z,24.97
2019-01-19T16:55:14.593Z,28.32
2019-01-19T16:58:39.059Z,27.20
2019-01-19T17:02:13.817Z,26.13
2019-01-19T17:05:36.373Z,31.23
2019-01-19T17:08:55.236Z,24.77
2019-01-19T17:12:35.201Z,29.50
2019-01-19T17:16:06.624Z,20.57
2019-01-19T17:19:27.291Z,23.38
2019-01-19T17:22:39.254Z,23.70
2019-01-19T17:25:57.811Z,24.30
2019-01-19T17:29:28.424Z,36.07
2019-01-19T17:32:28.574Z,27.37
2019-01-19T17:35:34.039Z,33.63
2019-01-19T17:39:11.639Z,37.27
2019-01-19T17:42:55.677Z,24.65
2019-01-19T17:46:18.785Z,30.17
2019-01-19T17:49:50.097Z,19.67
2019-01-19T17:53:19.588Z,35.20
2019-01-19T17:56:48.142Z,26.53
2019-01-19T18:00:08.155Z,22.40
2019-01-19T18:03:39.648Z,26.57
2019-01-19T18:06:50.089Z,24.93
2019-01-19T18:10:30.137Z,32.83
2019-01-19T18:13:53.898Z,31.48
2019-01-19T18:17:37.075Z,22.27
2019-01-19T18:20:43.469Z,34.70
2019-01-19T18:24:27.873Z,23.00
2019-01-19T18:27:23.843Z,27.43
2019-01-19T18:31:10.958Z,17.80
2019-01-19T18:34:16.453Z,20.83
2019-01-19T18:37:45.769Z,29.32
2019-01-19T18:40:53.505Z,30.17
2019-01-19T18:44:11.902Z,24.95
2019-01-19T18:47:15.479Z,20.73
2019-01-19T18:50:47.438Z,23.07
2019-01-19T18:54:07.512Z,29.87
2019-01-19T18:57:35.486Z,26.37
2019-01-19T19:00:33.501Z,27.33
2019-01-19T19:04:15.579Z,20.43
2019-01-19T19:07:41.477Z,26.33
2019-01-19T19:11:16.038Z,20.50
2019-01-19T19:14:35.836Z,23.30
2019-01-19T19:18:05.571Z,21.20
2019-01-19T19:21:57.219Z,27.40
2019-01-19T19:25:24.365Z,24.95
2019-01-19T19:29:19.840Z,22.18
2019-01-19T19:32:39.306Z,24.83
2019-01-19T19:35:59.461Z,25.50
2019-01-19T19:39:14.059Z,23.27
2019-01-19T19:42:29.960Z,22.90
2019-01-19T19:45:50.443Z,31.05
2019-01-19T19:49:23.399Z,32.40
2019-01-19T19:52:11.544Z,38.60
2019-01-19T19:54:51.371Z,24.57
2019-01-19T19:57:27.044Z,32.33
2019-01-19T19:59:56.989Z,32.87
2019-01-19T20:02:27.248Z,24.18
2019-01-19T20:04:57.421Z,31.03
2019-01-19T20:07:28.431Z,26.40
2019-01-19T20:09:59.924Z,55.23
2019-01-19T20:12:30.838Z,32.43
2019-01-19T20:15:01.283Z,29.37
2019-01-19T20:17:31.292Z,30.03
2019-01-19T20:20:01.431Z,29.12
2019-01-19T20:22:33.504Z,37.97
2019-01-19T20:25:03.597Z,30.13
2019-01-19T20:27:33.855Z,28.00
2019-01-19T20:30:04.974Z,24.47
2019-01-19T20:32:34.944Z,27.23
2019-01-19T20:35:05.443Z,25.50
2019-01-19T20:37:35.439Z,27.50
2019-01-19T20:40:08.277Z,26.37
2019-01-19T20:42:45.132Z,33.10
2019-01-19T20:45:18.828Z,30.73
2019-01-19T20:47:49.360Z,34.80
2019-01-19T20:50:22.941Z,34.43
2019-01-19T20:52:55.904Z,28.40
2019-01-19T20:55:26.854Z,34.76
2019-01-19T20:58:01.176Z,27.00
2019-01-19T21:00:31.403Z,36.90
2019-01-19T21:03:05.933Z,35.67
2019-01-19T21:05:36.364Z,38.40
2019-01-19T21:08:08.216Z,42.83
2019-01-19T21:10:38.256Z,32.23
2019-01-19T21:13:08.736Z,29.70
2019-01-19T21:15:39.065Z,40.58
2019-01-19T21:18:09.125Z,31.37
2019-01-19T21:20:39.103Z,41.17
2019-01-19T21:23:09.002Z,29.20
2019-01-19T21:25:38.961Z,37.03
2019-01-19T21:28:08.878Z,32.28
2019-01-19T21:30:39.718Z,33.08
2019-01-19T21:33:10.972Z,29.73
2019-01-19T21:35:41.156Z,40.95
2019-01-19T21:38:11.143Z,31.90
2019-01-19T21:40:41.143Z,35.68
2019-01-19T21:43:11.051Z,33.57
2019-01-19T21:45:44.385Z,34.67
2019-01-19T21:48:18.575Z,31.73
2019-01-19T21:50:48.694Z,31.30
2019-01-19T21:53:19.028Z,27.03
2019-01-19T21:55:49.108Z,31.70
2019-01-19T21:58:19.079Z,35.80
2019-01-19T22:00:49.158Z,30.47
2019-01-19T22:03:21.552Z,28.47
2019-01-19T22:05:51.455Z,41.48
2019-01-19T22:08:21.588Z,42.93
2019-01-19T22:10:51.678Z,26.50
2019-01-19T22:13:22.787Z,30.40
2019-01-19T22:15:52.755Z,32.28
2019-01-19T22:18:22.695Z,37.20
2019-01-19T22:20:53.240Z,36.40
2019-01-19T22:23:23.348Z,27.25
2019-01-19T22:25:53.387Z,30.37
2019-01-19T22:28:23.715Z,32.30
2019-01-19T22:30:53.814Z,38.43
2019-01-19T22:33:24.531Z,34.00
2019-01-19T22:35:54.421Z,40.03
2019-01-19T22:38:25.575Z,41.10
2019-01-19T22:40:55.709Z,31.63
2019-01-19T22:43:32.644Z,38.02
2019-01-19T22:46:02.860Z,30.30
2019-01-19T22:48:33.015Z,36.42
2019-01-19T22:51:03.125Z,38.92
2019-01-19T22:53:33.306Z,45.12
2019-01-19T22:56:04.524Z,34.33
2019-01-19T22:58:34.547Z,35.73
2019-01-19T23:01:43.294Z,38.80
2019-01-19T23:04:13.398Z,40.00
2019-01-19T23:06:45.218Z,39.37
2019-01-19T23:09:20.141Z,40.73
2019-01-19T23:11:53.044Z,35.00
2019-01-19T23:14:26.484Z,38.48
2019-01-19T23:16:56.686Z,47.07
2019-01-19T23:19:27.041Z,35.38
2019-01-19T23:21:57.265Z,37.90
2019-01-19T23:24:28.308Z,37.45
2019-01-19T23:27:16.889Z,47.08
2019-01-19T23:29:47.887Z,36.07
2019-01-19T23:32:19.828Z,38.05
2019-01-19T23:34:50.259Z,42.67
2019-01-19T23:37:23.974Z,41.93
2019-01-19T23:39:54.074Z,47.78
2019-01-19T23:42:25.281Z,41.45
2019-01-19T23:44:55.373Z,35.53
2019-01-19T23:47:25.281Z,33.15
2019-01-19T23:49:55.182Z,40.55
2019-01-19T23:52:25.105Z,39.57
2019-01-19T23:54:55.224Z,36.83
2019-01-19T23:57:25.330Z,42.93
2019-01-19T23:59:55.567Z,37.33
